sensor_id;sensor_type;location;lat;lon;timestamp;pressure;altitude;pressure_sealevel;temperature;humidity
11808;BME280;5961;42.640;23.380;2023-02-20T00:01:48;94345.69;;;11.49;63.92
11808;BME280;5961;42.640;23.380;2023-02-20T00:04:15;94340.56;;;11.44;64.75
11808;BME280;5961;42.640;23.380;2023-02-20T00:06:41;94333.44;;;11.36;65.00
11808;BME280;5961;42.640;23.380;2023-02-20T00:09:08;94329.44;;;11.30;64.91
11808;BME280;5961;42.640;23.380;2023-02-20T00:11:36;94336.56;;;11.38;65.45
11808;BME280;5961;42.640;23.380;2023-02-20T00:14:03;94335.66;;;11.34;65.46
11808;BME280;5961;42.640;23.380;2023-02-20T00:16:30;94352.63;;;11.30;65.96
11808;BME280;5961;42.640;23.380;2023-02-20T00:18:56;94337.84;;;11.20;66.77
11808;BME280;5961;42.640;23.380;2023-02-20T00:21:23;94338.41;;;11.26;66.59
11808;BME280;5961;42.640;23.380;2023-02-20T00:23:50;94326.75;;;11.18;66.71
11808;BME280;5961;42.640;23.380;2023-02-20T00:26:16;94340.81;;;11.19;67.17
11808;BME280;5961;42.640;23.380;2023-02-20T00:28:44;94346.63;;;11.21;67.34
11808;BME280;5961;42.640;23.380;2023-02-20T00:31:13;94341.59;;;11.19;67.32
11808;BME280;5961;42.640;23.380;2023-02-20T00:33:41;94368.28;;;11.11;67.91
11808;BME280;5961;42.640;23.380;2023-02-20T00:36:13;94346.34;;;11.14;68.07
11808;BME280;5961;42.640;23.380;2023-02-20T00:38:41;94327.16;;;11.08;68.43
11808;BME280;5961;42.640;23.380;2023-02-20T00:41:08;94330.66;;;11.00;69.11
11808;BME280;5961;42.640;23.380;2023-02-20T00:43:35;94335.16;;;11.08;68.83
11808;BME280;5961;42.640;23.380;2023-02-20T00:46:04;94313.03;;;10.95;68.99
11808;BME280;5961;42.640;23.380;2023-02-20T00:48:31;94319.59;;;10.98;69.46
11808;BME280;5961;42.640;23.380;2023-02-20T00:50:58;94324.47;;;10.96;69.18
11808;BME280;5961;42.640;23.380;2023-02-20T00:53:24;94341.97;;;10.97;69.13
11808;BME280;5961;42.640;23.380;2023-02-20T00:55:51;94312.38;;;10.98;69.07
11808;BME280;5961;42.640;23.380;2023-02-20T00:58:18;94353.38;;;10.97;69.28
11808;BME280;5961;42.640;23.380;2023-02-20T01:00:44;94318.69;;;10.94;69.01
11808;BME280;5961;42.640;23.380;2023-02-20T01:03:12;94296.88;;;10.68;69.20
11808;BME280;5961;42.640;23.380;2023-02-20T01:05:39;94333.53;;;10.95;69.22
11808;BME280;5961;42.640;23.380;2023-02-20T01:08:06;94343.91;;;10.88;69.40
11808;BME280;5961;42.640;23.380;2023-02-20T01:10:32;94348.78;;;10.86;70.06
11808;BME280;5961;42.640;23.380;2023-02-20T01:12:59;94351.44;;;10.86;70.28
11808;BME280;5961;42.640;23.380;2023-02-20T01:15:26;94361.06;;;10.78;70.71
11808;BME280;5961;42.640;23.380;2023-02-20T01:17:52;94364.75;;;10.86;70.80
11808;BME280;5961;42.640;23.380;2023-02-20T01:20:20;94396.50;;;10.82;71.14
11808;BME280;5961;42.640;23.380;2023-02-20T01:22:47;94362.72;;;10.83;70.62
11808;BME280;5961;42.640;23.380;2023-02-20T01:25:14;94409.66;;;10.79;71.38
11808;BME280;5961;42.640;23.380;2023-02-20T01:27:41;94392.50;;;10.76;71.26
11808;BME280;5961;42.640;23.380;2023-02-20T01:30:08;94380.34;;;10.67;71.53
11808;BME280;5961;42.640;23.380;2023-02-20T01:32:35;94408.13;;;10.78;71.43
11808;BME280;5961;42.640;23.380;2023-02-20T01:35:02;94401.69;;;10.79;71.56
11808;BME280;5961;42.640;23.380;2023-02-20T01:37:30;94376.22;;;10.78;71.60
11808;BME280;5961;42.640;23.380;2023-02-20T01:39:57;94389.31;;;10.83;71.64
11808;BME280;5961;42.640;23.380;2023-02-20T01:42:25;94386.22;;;10.81;71.65
11808;BME280;5961;42.640;23.380;2023-02-20T01:44:54;94374.78;;;10.80;71.69
11808;BME280;5961;42.640;23.380;2023-02-20T01:47:22;94379.97;;;10.77;72.46
11808;BME280;5961;42.640;23.380;2023-02-20T01:49:51;94382.63;;;10.77;72.67
11808;BME280;5961;42.640;23.380;2023-02-20T01:52:22;94404.09;;;10.72;73.04
11808;BME280;5961;42.640;23.380;2023-02-20T01:54:55;94408.78;;;10.75;73.54
11808;BME280;5961;42.640;23.380;2023-02-20T01:57:25;94432.16;;;10.61;74.70
11808;BME280;5961;42.640;23.380;2023-02-20T01:59:56;94424.19;;;10.61;75.00
11808;BME280;5961;42.640;23.380;2023-02-20T02:02:27;94392.03;;;10.54;75.06
11808;BME280;5961;42.640;23.380;2023-02-20T02:04:56;94392.03;;;10.54;74.75
11808;BME280;5961;42.640;23.380;2023-02-20T02:07:23;94398.63;;;10.48;75.49
11808;BME280;5961;42.640;23.380;2023-02-20T02:09:54;94412.22;;;10.46;75.65
11808;BME280;5961;42.640;23.380;2023-02-20T02:12:23;94406.78;;;10.42;75.42
11808;BME280;5961;42.640;23.380;2023-02-20T02:14:50;94409.38;;;10.30;76.56
11808;BME280;5961;42.640;23.380;2023-02-20T02:17:28;94424.19;;;10.31;76.29
11808;BME280;5961;42.640;23.380;2023-02-20T02:23:16;94449.13;;;10.01;74.72
11808;BME280;5961;42.640;23.380;2023-02-20T02:25:54;94429.31;;;9.99;74.16
11808;BME280;5961;42.640;23.380;2023-02-20T02:28:45;94429.16;;;9.95;74.03
11808;BME280;5961;42.640;23.380;2023-02-20T02:31:46;94412.00;;;9.92;74.27
11808;BME280;5961;42.640;23.380;2023-02-20T02:35:10;94410.13;;;9.93;74.64
11808;BME280;5961;42.640;23.380;2023-02-20T02:37:49;94437.50;;;9.85;74.91
11808;BME280;5961;42.640;23.380;2023-02-20T02:40:25;94424.34;;;9.88;74.81
11808;BME280;5961;42.640;23.380;2023-02-20T02:43:00;94421.41;;;9.81;74.01
11808;BME280;5961;42.640;23.380;2023-02-20T02:45:34;94411.44;;;9.78;74.20
11808;BME280;5961;42.640;23.380;2023-02-20T02:48:06;94453.91;;;9.78;74.20
11808;BME280;5961;42.640;23.380;2023-02-20T02:50:38;94427.50;;;9.73;74.09
11808;BME280;5961;42.640;23.380;2023-02-20T02:53:10;94434.06;;;9.67;74.61
11808;BME280;5961;42.640;23.380;2023-02-20T02:55:38;94422.84;;;9.62;74.55
11808;BME280;5961;42.640;23.380;2023-02-20T02:58:05;94417.41;;;9.67;74.01
11808;BME280;5961;42.640;23.380;2023-02-20T03:00:35;94460.50;;;9.64;74.08
11808;BME280;5961;42.640;23.380;2023-02-20T03:03:07;94436.28;;;9.65;73.77
11808;BME280;5961;42.640;23.380;2023-02-20T03:05:39;94454.41;;;9.63;74.05
11808;BME280;5961;42.640;23.380;2023-02-20T03:08:18;94451.13;;;9.58;74.09
11808;BME280;5961;42.640;23.380;2023-02-20T03:10:57;94450.00;;;9.67;73.76
11808;BME280;5961;42.640;23.380;2023-02-20T03:13:28;94451.75;;;9.55;74.09
11808;BME280;5961;42.640;23.380;2023-02-20T03:16:15;94467.97;;;9.62;73.51
11808;BME280;5961;42.640;23.380;2023-02-20T03:18:45;94469.72;;;9.58;73.74
11808;BME280;5961;42.640;23.380;2023-02-20T03:21:16;94509.50;;;9.58;73.64
11808;BME280;5961;42.640;23.380;2023-02-20T03:23:47;94489.53;;;9.52;74.05
11808;BME280;5961;42.640;23.380;2023-02-20T03:26:18;94476.13;;;9.48;74.06
11808;BME280;5961;42.640;23.380;2023-02-20T03:28:51;94440.06;;;9.38;74.25
11808;BME280;5961;42.640;23.380;2023-02-20T03:31:23;94468.16;;;9.48;74.29
11808;BME280;5961;42.640;23.380;2023-02-20T03:33:57;94474.25;;;9.49;74.52
11808;BME280;5961;42.640;23.380;2023-02-20T03:36:45;94456.00;;;9.30;74.30
11808;BME280;5961;42.640;23.380;2023-02-20T03:39:36;94494.06;;;9.43;74.67
11808;BME280;5961;42.640;23.380;2023-02-20T03:42:21;94542.28;;;9.45;74.04
11808;BME280;5961;42.640;23.380;2023-02-20T03:45:09;94487.22;;;9.33;74.73
11808;BME280;5961;42.640;23.380;2023-02-20T03:47:39;94481.41;;;9.31;74.87
11808;BME280;5961;42.640;23.380;2023-02-20T03:50:11;94460.97;;;9.31;74.72
11808;BME280;5961;42.640;23.380;2023-02-20T03:52:39;94438.38;;;9.08;74.49
11808;BME280;5961;42.640;23.380;2023-02-20T03:55:07;94476.13;;;9.40;73.95
11808;BME280;5961;42.640;23.380;2023-02-20T03:57:38;94497.97;;;9.36;73.88
11808;BME280;5961;42.640;23.380;2023-02-20T04:00:10;94487.38;;;9.36;73.79
11808;BME280;5961;42.640;23.380;2023-02-20T04:02:41;94531.97;;;9.34;74.01
11808;BME280;5961;42.640;23.380;2023-02-20T04:05:15;94502.63;;;9.31;74.19
11808;BME280;5961;42.640;23.380;2023-02-20T04:07:48;94543.03;;;9.19;73.93
11808;BME280;5961;42.640;23.380;2023-02-20T04:10:22;94504.38;;;9.18;73.77
11808;BME280;5961;42.640;23.380;2023-02-20T04:12:50;94519.50;;;9.09;73.45
11808;BME280;5961;42.640;23.380;2023-02-20T04:15:19;94516.06;;;9.09;73.24
11808;BME280;5961;42.640;23.380;2023-02-20T04:17:49;94546.00;;;9.09;72.99
11808;BME280;5961;42.640;23.380;2023-02-20T04:20:18;94527.56;;;9.13;72.81
11808;BME280;5961;42.640;23.380;2023-02-20T04:22:47;94508.72;;;9.06;73.06
11808;BME280;5961;42.640;23.380;2023-02-20T04:25:24;94512.94;;;9.15;72.38
11808;BME280;5961;42.640;23.380;2023-02-20T04:27:55;94505.00;;;9.15;72.64
11808;BME280;5961;42.640;23.380;2023-02-20T04:30:22;94501.22;;;9.16;72.81
11808;BME280;5961;42.640;23.380;2023-02-20T04:32:48;94525.72;;;9.22;72.71
11808;BME280;5961;42.640;23.380;2023-02-20T04:35:16;94558.47;;;9.17;73.21
11808;BME280;5961;42.640;23.380;2023-02-20T04:37:44;94516.34;;;9.07;74.07
11808;BME280;5961;42.640;23.380;2023-02-20T04:40:11;94510.72;;;8.92;74.06
11808;BME280;5961;42.640;23.380;2023-02-20T04:42:40;94490.78;;;9.03;74.57
11808;BME280;5961;42.640;23.380;2023-02-20T04:45:07;94507.16;;;9.05;74.61
11808;BME280;5961;42.640;23.380;2023-02-20T04:47:33;94497.94;;;9.02;74.38
11808;BME280;5961;42.640;23.380;2023-02-20T04:50:00;94504.31;;;8.93;74.08
11808;BME280;5961;42.640;23.380;2023-02-20T04:52:27;94513.34;;;8.92;73.74
11808;BME280;5961;42.640;23.380;2023-02-20T04:54:53;94504.47;;;8.88;72.99
11808;BME280;5961;42.640;23.380;2023-02-20T04:57:20;94549.72;;;8.91;72.56
11808;BME280;5961;42.640;23.380;2023-02-20T04:59:49;94549.56;;;8.96;71.99
11808;BME280;5961;42.640;23.380;2023-02-20T05:02:16;94493.09;;;8.78;71.01
11808;BME280;5961;42.640;23.380;2023-02-20T05:04:43;94529.59;;;8.90;70.75
11808;BME280;5961;42.640;23.380;2023-02-20T05:07:09;94547.53;;;8.93;69.96
11808;BME280;5961;42.640;23.380;2023-02-20T05:09:36;94533.31;;;8.89;70.01
11808;BME280;5961;42.640;23.380;2023-02-20T05:12:03;94549.09;;;8.94;69.14
11808;BME280;5961;42.640;23.380;2023-02-20T05:14:30;94528.78;;;8.81;68.68
11808;BME280;5961;42.640;23.380;2023-02-20T05:16:58;94536.75;;;8.81;68.76
11808;BME280;5961;42.640;23.380;2023-02-20T05:19:24;94563.88;;;8.87;67.83
11808;BME280;5961;42.640;23.380;2023-02-20T05:21:51;94515.06;;;8.79;67.36
11808;BME280;5961;42.640;23.380;2023-02-20T05:24:41;94550.75;;;8.73;67.32
11808;BME280;5961;42.640;23.380;2023-02-20T05:27:09;94563.03;;;8.69;67.40
11808;BME280;5961;42.640;23.380;2023-02-20T05:29:35;94549.63;;;8.65;67.62
11808;BME280;5961;42.640;23.380;2023-02-20T05:32:04;94566.88;;;8.54;67.80
11808;BME280;5961;42.640;23.380;2023-02-20T05:34:30;94563.19;;;8.64;67.78
11808;BME280;5961;42.640;23.380;2023-02-20T05:36:57;94555.81;;;8.52;68.58
11808;BME280;5961;42.640;23.380;2023-02-20T05:39:24;94597.13;;;8.62;68.84
11808;BME280;5961;42.640;23.380;2023-02-20T05:41:50;94603.34;;;8.49;69.66
11808;BME280;5961;42.640;23.380;2023-02-20T05:44:17;94602.41;;;8.53;70.17
11808;BME280;5961;42.640;23.380;2023-02-20T05:46:44;94601.28;;;8.46;70.54
11808;BME280;5961;42.640;23.380;2023-02-20T05:49:12;94579.00;;;8.47;71.20
11808;BME280;5961;42.640;23.380;2023-02-20T05:51:39;94596.47;;;8.48;71.70
11808;BME280;5961;42.640;23.380;2023-02-20T05:54:05;94601.16;;;8.51;71.91
11808;BME280;5961;42.640;23.380;2023-02-20T05:56:32;94586.75;;;8.43;72.38
11808;BME280;5961;42.640;23.380;2023-02-20T05:58:59;94578.97;;;8.38;72.12
11808;BME280;5961;42.640;23.380;2023-02-20T06:01:28;94574.84;;;8.54;72.15
11808;BME280;5961;42.640;23.380;2023-02-20T06:03:55;94543.44;;;8.31;72.10
11808;BME280;5961;42.640;23.380;2023-02-20T06:06:23;94580.31;;;8.58;72.11
11808;BME280;5961;42.640;23.380;2023-02-20T06:08:50;94584.25;;;8.69;71.43
11808;BME280;5961;42.640;23.380;2023-02-20T06:11:16;94622.78;;;8.75;68.46
11808;BME280;5961;42.640;23.380;2023-02-20T06:13:44;94622.44;;;8.76;66.12
11808;BME280;5961;42.640;23.380;2023-02-20T06:16:11;94602.38;;;8.84;65.83
11808;BME280;5961;42.640;23.380;2023-02-20T06:18:39;94604.41;;;8.87;63.97
11808;BME280;5961;42.640;23.380;2023-02-20T06:21:07;94625.06;;;8.68;64.39
11808;BME280;5961;42.640;23.380;2023-02-20T06:23:36;94587.75;;;8.95;63.24
11808;BME280;5961;42.640;23.380;2023-02-20T06:26:04;94583.06;;;8.92;63.50
11808;BME280;5961;42.640;23.380;2023-02-20T06:28:31;94600.91;;;9.09;63.20
11808;BME280;5961;42.640;23.380;2023-02-20T06:30:57;94609.47;;;9.06;63.01
11808;BME280;5961;42.640;23.380;2023-02-20T06:33:24;94629.28;;;9.08;63.18
11808;BME280;5961;42.640;23.380;2023-02-20T06:35:51;94617.28;;;9.19;63.17
11808;BME280;5961;42.640;23.380;2023-02-20T06:38:17;94672.53;;;9.26;62.19
11808;BME280;5961;42.640;23.380;2023-02-20T06:40:45;94622.59;;;9.28;61.68
11808;BME280;5961;42.640;23.380;2023-02-20T06:43:12;94608.59;;;9.36;61.64
11808;BME280;5961;42.640;23.380;2023-02-20T06:45:39;94621.53;;;9.37;62.05
11808;BME280;5961;42.640;23.380;2023-02-20T06:48:06;94649.81;;;9.42;62.24
11808;BME280;5961;42.640;23.380;2023-02-20T06:50:32;94657.13;;;9.36;61.67
11808;BME280;5961;42.640;23.380;2023-02-20T06:52:59;94671.47;;;9.35;61.01
11808;BME280;5961;42.640;23.380;2023-02-20T06:55:26;94534.94;;;8.51;60.76
11808;BME280;5961;42.640;23.380;2023-02-20T06:57:54;94647.44;;;9.41;60.73
11808;BME280;5961;42.640;23.380;2023-02-20T07:00:21;94669.47;;;9.41;61.25
11808;BME280;5961;42.640;23.380;2023-02-20T07:02:48;94633.38;;;9.31;61.44
11808;BME280;5961;42.640;23.380;2023-02-20T07:05:14;94675.22;;;9.34;61.21
11808;BME280;5961;42.640;23.380;2023-02-20T07:07:41;94637.28;;;9.34;61.57
11808;BME280;5961;42.640;23.380;2023-02-20T07:10:08;94619.00;;;9.15;61.45
11808;BME280;5961;42.640;23.380;2023-02-20T07:12:35;94649.63;;;9.38;60.78
11808;BME280;5961;42.640;23.380;2023-02-20T07:15:05;94644.94;;;9.35;60.82
11808;BME280;5961;42.640;23.380;2023-02-20T07:17:32;94667.41;;;9.29;58.61
11808;BME280;5961;42.640;23.380;2023-02-20T07:19:58;94653.06;;;9.30;59.76
11808;BME280;5961;42.640;23.380;2023-02-20T07:22:25;94663.50;;;9.35;59.35
11808;BME280;5961;42.640;23.380;2023-02-20T07:24:53;94625.88;;;9.16;59.38
11808;BME280;5961;42.640;23.380;2023-02-20T07:27:20;94661.81;;;9.40;57.61
11808;BME280;5961;42.640;23.380;2023-02-20T07:29:47;94740.78;;;9.43;56.65
11808;BME280;5961;42.640;23.380;2023-02-20T07:32:16;94646.84;;;9.44;55.57
11808;BME280;5961;42.640;23.380;2023-02-20T07:34:45;94602.66;;;9.30;53.95
11808;BME280;5961;42.640;23.380;2023-02-20T07:37:12;94657.75;;;9.42;54.73
11808;BME280;5961;42.640;23.380;2023-02-20T07:39:39;94663.69;;;9.39;53.72
11808;BME280;5961;42.640;23.380;2023-02-20T07:42:06;94718.25;;;9.31;53.06
11808;BME280;5961;42.640;23.380;2023-02-20T07:44:32;94692.84;;;9.30;53.50
11808;BME280;5961;42.640;23.380;2023-02-20T07:47:00;94636.19;;;9.26;53.27
11808;BME280;5961;42.640;23.380;2023-02-20T07:49:28;94704.53;;;9.29;52.94
11808;BME280;5961;42.640;23.380;2023-02-20T07:51:55;94706.56;;;9.32;52.81
11808;BME280;5961;42.640;23.380;2023-02-20T07:54:21;94694.38;;;9.23;52.87
11808;BME280;5961;42.640;23.380;2023-02-20T07:56:48;94690.31;;;9.25;52.15
11808;BME280;5961;42.640;23.380;2023-02-20T07:59:15;94655.53;;;9.27;51.55
11808;BME280;5961;42.640;23.380;2023-02-20T08:01:43;94741.94;;;9.19;51.29
11808;BME280;5961;42.640;23.380;2023-02-20T08:04:09;94668.47;;;9.28;51.27
11808;BME280;5961;42.640;23.380;2023-02-20T08:06:37;94618.09;;;9.28;51.66
11808;BME280;5961;42.640;23.380;2023-02-20T08:09:04;94683.94;;;9.26;51.93
11808;BME280;5961;42.640;23.380;2023-02-20T08:11:32;94698.75;;;9.27;51.43
11808;BME280;5961;42.640;23.380;2023-02-20T08:14:00;94742.09;;;9.23;50.99
11808;BME280;5961;42.640;23.380;2023-02-20T08:16:27;94690.81;;;9.27;50.99
11808;BME280;5961;42.640;23.380;2023-02-20T08:18:53;94703.47;;;9.30;50.41
11808;BME280;5961;42.640;23.380;2023-02-20T08:21:21;94644.50;;;9.33;50.61
11808;BME280;5961;42.640;23.380;2023-02-20T08:23:49;94697.19;;;9.26;50.22
11808;BME280;5961;42.640;23.380;2023-02-20T08:26:16;94654.94;;;9.38;50.96
11808;BME280;5961;42.640;23.380;2023-02-20T08:28:45;94655.72;;;9.39;51.11
11808;BME280;5961;42.640;23.380;2023-02-20T08:31:12;94641.06;;;9.50;50.41
11808;BME280;5961;42.640;23.380;2023-02-20T08:33:38;94722.84;;;9.48;50.76
11808;BME280;5961;42.640;23.380;2023-02-20T08:36:06;94688.66;;;9.47;50.45
11808;BME280;5961;42.640;23.380;2023-02-20T08:38:34;94703.97;;;9.50;50.28
11808;BME280;5961;42.640;23.380;2023-02-20T08:41:04;94673.69;;;9.51;50.71
11808;BME280;5961;42.640;23.380;2023-02-20T08:43:32;94769.03;;;9.47;50.32
11808;BME280;5961;42.640;23.380;2023-02-20T08:45:59;94745.47;;;9.46;50.73
11808;BME280;5961;42.640;23.380;2023-02-20T08:48:26;94709.28;;;9.50;50.29
11808;BME280;5961;42.640;23.380;2023-02-20T08:50:53;94613.97;;;8.97;50.75
11808;BME280;5961;42.640;23.380;2023-02-20T08:53:20;94680.56;;;9.52;50.72
11808;BME280;5961;42.640;23.380;2023-02-20T08:55:47;94722.72;;;9.53;50.16
11808;BME280;5961;42.640;23.380;2023-02-20T08:58:17;94697.25;;;9.52;50.26
11808;BME280;5961;42.640;23.380;2023-02-20T09:00:44;94701.19;;;9.55;50.58
11808;BME280;5961;42.640;23.380;2023-02-20T09:03:11;94821.69;;;9.54;49.61
11808;BME280;5961;42.640;23.380;2023-02-20T09:05:38;94643.44;;;9.52;49.84
11808;BME280;5961;42.640;23.380;2023-02-20T09:08:04;94760.19;;;9.52;49.54
11808;BME280;5961;42.640;23.380;2023-02-20T09:10:31;94666.97;;;9.45;49.49
11808;BME280;5961;42.640;23.380;2023-02-20T09:12:58;94627.66;;;9.55;50.39
11808;BME280;5961;42.640;23.380;2023-02-20T09:15:26;94671.84;;;9.60;50.40
11808;BME280;5961;42.640;23.380;2023-02-20T09:17:53;94645.63;;;9.67;49.85
11808;BME280;5961;42.640;23.380;2023-02-20T09:20:21;94686.97;;;9.68;49.98
11808;BME280;5961;42.640;23.380;2023-02-20T09:22:49;94629.72;;;9.67;50.24
11808;BME280;5961;42.640;23.380;2023-02-20T09:25:16;94641.88;;;9.68;50.20
11808;BME280;5961;42.640;23.380;2023-02-20T09:27:43;94654.38;;;9.76;49.81
11808;BME280;5961;42.640;23.380;2023-02-20T09:30:14;94641.56;;;9.78;49.65
11808;BME280;5961;42.640;23.380;2023-02-20T09:32:45;94639.38;;;9.80;49.87
11808;BME280;5961;42.640;23.380;2023-02-20T09:35:16;94700.59;;;9.75;49.99
11808;BME280;5961;42.640;23.380;2023-02-20T09:37:44;94708.38;;;9.63;50.38
11808;BME280;5961;42.640;23.380;2023-02-20T09:40:12;94680.91;;;9.67;50.45
11808;BME280;5961;42.640;23.380;2023-02-20T09:42:48;94609.72;;;9.69;50.85
11808;BME280;5961;42.640;23.380;2023-02-20T09:45:19;94617.97;;;9.68;50.93
11808;BME280;5961;42.640;23.380;2023-02-20T09:47:59;94608.59;;;9.70;51.03
11808;BME280;5961;42.640;23.380;2023-02-20T09:50:33;94733.22;;;9.75;51.02
11808;BME280;5961;42.640;23.380;2023-02-20T09:53:05;94649.69;;;9.81;51.10
11808;BME280;5961;42.640;23.380;2023-02-20T09:55:39;94623.28;;;9.76;50.23
11808;BME280;5961;42.640;23.380;2023-02-20T09:58:15;94625.97;;;9.85;50.92
11808;BME280;5961;42.640;23.380;2023-02-20T10:00:44;94670.47;;;9.97;50.62
11808;BME280;5961;42.640;23.380;2023-02-20T10:03:19;94658.91;;;10.10;50.61
11808;BME280;5961;42.640;23.380;2023-02-20T10:05:48;94657.34;;;10.09;49.26
11808;BME280;5961;42.640;23.380;2023-02-20T10:08:18;94697.50;;;10.07;48.36
11808;BME280;5961;42.640;23.380;2023-02-20T10:10:48;94675.97;;;10.17;47.89
11808;BME280;5961;42.640;23.380;2023-02-20T10:13:33;94696.59;;;10.20;47.68
11808;BME280;5961;42.640;23.380;2023-02-20T10:16:11;94725.34;;;10.18;47.60
11808;BME280;5961;42.640;23.380;2023-02-20T10:18:49;94617.38;;;10.14;46.46
11808;BME280;5961;42.640;23.380;2023-02-20T10:21:33;94722.69;;;10.18;46.49
11808;BME280;5961;42.640;23.380;2023-02-20T10:24:19;94655.03;;;10.24;45.83
11808;BME280;5961;42.640;23.380;2023-02-20T10:26:50;94693.75;;;10.25;44.02
11808;BME280;5961;42.640;23.380;2023-02-20T10:29:21;94655.03;;;10.24;44.26
11808;BME280;5961;42.640;23.380;2023-02-20T10:31:52;94659.09;;;10.30;44.93
11808;BME280;5961;42.640;23.380;2023-02-20T10:34:29;94627.84;;;10.27;45.23
11808;BME280;5961;42.640;23.380;2023-02-20T10:37:02;94663.78;;;10.33;45.34
11808;BME280;5961;42.640;23.380;2023-02-20T10:39:32;94623.78;;;10.30;43.69
11808;BME280;5961;42.640;23.380;2023-02-20T10:42:02;94615.44;;;10.40;43.66
11808;BME280;5961;42.640;23.380;2023-02-20T10:44:37;94642.00;;;10.40;42.24
11808;BME280;5961;42.640;23.380;2023-02-20T10:47:12;94607.00;;;10.46;42.02
11808;BME280;5961;42.640;23.380;2023-02-20T10:49:45;94672.16;;;10.53;42.60
11808;BME280;5961;42.640;23.380;2023-02-20T10:52:19;94649.50;;;10.46;42.31
11808;BME280;5961;42.640;23.380;2023-02-20T10:54:52;94601.66;;;10.55;42.19
11808;BME280;5961;42.640;23.380;2023-02-20T10:57:24;94633.69;;;10.59;42.03
11808;BME280;5961;42.640;23.380;2023-02-20T10:59:56;94585.03;;;10.67;41.27
11808;BME280;5961;42.640;23.380;2023-02-20T11:02:30;94561.41;;;10.74;42.24
11808;BME280;5961;42.640;23.380;2023-02-20T11:05:04;94631.41;;;10.86;41.61
11808;BME280;5961;42.640;23.380;2023-02-20T11:07:33;94583.50;;;10.95;42.48
11808;BME280;5961;42.640;23.380;2023-02-20T11:09:59;94598.47;;;11.08;41.87
11808;BME280;5961;42.640;23.380;2023-02-20T11:12:29;94665.22;;;11.24;41.62
11808;BME280;5961;42.640;23.380;2023-02-20T11:14:58;94604.44;;;11.34;40.37
11808;BME280;5961;42.640;23.380;2023-02-20T11:17:27;94606.97;;;11.51;40.27
11808;BME280;5961;42.640;23.380;2023-02-20T11:19:56;94586.38;;;11.61;40.02
11808;BME280;5961;42.640;23.380;2023-02-20T11:22:47;94665.84;;;11.79;39.61
11808;BME280;5961;42.640;23.380;2023-02-20T11:25:17;94612.22;;;11.89;39.40
11808;BME280;5961;42.640;23.380;2023-02-20T11:27:45;94658.00;;;12.03;36.70
11808;BME280;5961;42.640;23.380;2023-02-20T11:30:26;94602.72;;;12.00;37.03
11808;BME280;5961;42.640;23.380;2023-02-20T11:33:01;94592.06;;;12.00;38.35
11808;BME280;5961;42.640;23.380;2023-02-20T11:35:34;94608.78;;;12.22;39.28
11808;BME280;5961;42.640;23.380;2023-02-20T11:38:26;94663.19;;;12.41;39.23
11808;BME280;5961;42.640;23.380;2023-02-20T11:41:07;94613.97;;;12.39;39.83
11808;BME280;5961;42.640;23.380;2023-02-20T11:43:38;94642.00;;;12.45;40.53
11808;BME280;5961;42.640;23.380;2023-02-20T11:46:10;94605.56;;;12.61;40.37
11808;BME280;5961;42.640;23.380;2023-02-20T11:48:57;94679.56;;;12.64;40.26
11808;BME280;5961;42.640;23.380;2023-02-20T11:51:33;94580.34;;;12.58;39.87
11808;BME280;5961;42.640;23.380;2023-02-20T11:54:11;94604.91;;;12.64;39.38
11808;BME280;5961;42.640;23.380;2023-02-20T11:57:00;94616.38;;;12.77;39.58
11808;BME280;5961;42.640;23.380;2023-02-20T11:59:35;94614.72;;;12.39;39.39
11808;BME280;5961;42.640;23.380;2023-02-20T12:02:26;94628.72;;;12.69;39.39
11808;BME280;5961;42.640;23.380;2023-02-20T12:05:06;94591.25;;;12.65;39.05
11808;BME280;5961;42.640;23.380;2023-02-20T12:07:36;94588.81;;;12.73;38.97
11808;BME280;5961;42.640;23.380;2023-02-20T12:10:13;94631.44;;;12.60;38.88
11808;BME280;5961;42.640;23.380;2023-02-20T12:12:41;94633.59;;;12.67;38.65
11808;BME280;5961;42.640;23.380;2023-02-20T12:15:12;94571.81;;;12.77;38.54
11808;BME280;5961;42.640;23.380;2023-02-20T12:17:48;94585.16;;;12.77;38.05
11808;BME280;5961;42.640;23.380;2023-02-20T12:20:18;94640.16;;;12.82;37.54
11808;BME280;5961;42.640;23.380;2023-02-20T12:22:52;94586.94;;;12.85;37.01
11808;BME280;5961;42.640;23.380;2023-02-20T12:25:29;94628.84;;;12.97;36.77
11808;BME280;5961;42.640;23.380;2023-02-20T12:28:06;94551.50;;;13.09;36.93
11808;BME280;5961;42.640;23.380;2023-02-20T12:30:49;94628.69;;;13.14;36.96
11808;BME280;5961;42.640;23.380;2023-02-20T12:36:29;94660.81;;;13.42;36.61
11808;BME280;5961;42.640;23.380;2023-02-20T12:39:02;94648.47;;;13.37;36.96
11808;BME280;5961;42.640;23.380;2023-02-20T12:41:42;94625.78;;;13.43;36.49
11808;BME280;5961;42.640;23.380;2023-02-20T12:44:29;94691.75;;;13.55;36.63
11808;BME280;5961;42.640;23.380;2023-02-20T12:47:07;94636.88;;;13.57;36.35
11808;BME280;5961;42.640;23.380;2023-02-20T12:49:52;94678.50;;;13.70;36.38
11808;BME280;5961;42.640;23.380;2023-02-20T12:52:35;94616.38;;;13.86;35.72
11808;BME280;5961;42.640;23.380;2023-02-20T12:55:17;94615.16;;;13.83;35.53
11808;BME280;5961;42.640;23.380;2023-02-20T12:57:53;94618.53;;;14.08;35.59
11808;BME280;5961;42.640;23.380;2023-02-20T13:00:31;94621.22;;;14.08;35.02
11808;BME280;5961;42.640;23.380;2023-02-20T13:03:04;94611.06;;;14.13;35.18
11808;BME280;5961;42.640;23.380;2023-02-20T13:05:37;94613.38;;;14.15;35.35
11808;BME280;5961;42.640;23.380;2023-02-20T13:08:08;94660.25;;;14.24;35.11
11808;BME280;5961;42.640;23.380;2023-02-20T13:10:45;94653.31;;;14.36;35.12
11808;BME280;5961;42.640;23.380;2023-02-20T13:13:14;94600.63;;;14.36;35.08
11808;BME280;5961;42.640;23.380;2023-02-20T13:15:48;94620.41;;;14.47;34.94
11808;BME280;5961;42.640;23.380;2023-02-20T13:18:23;94625.88;;;14.66;34.68
11808;BME280;5961;42.640;23.380;2023-02-20T13:20:55;94616.56;;;14.76;34.18
11808;BME280;5961;42.640;23.380;2023-02-20T13:23:29;94593.69;;;14.78;33.80
11808;BME280;5961;42.640;23.380;2023-02-20T13:25:57;94610.28;;;15.00;33.41
11808;BME280;5961;42.640;23.380;2023-02-20T13:28:37;94546.16;;;14.56;33.13
11808;BME280;5961;42.640;23.380;2023-02-20T13:31:20;94610.78;;;15.21;32.61
11808;BME280;5961;42.640;23.380;2023-02-20T13:33:49;94634.59;;;15.42;32.41